createdAt,value
2023-05-10T00:03:36.538Z,2.72
2023-05-10T00:07:52.889Z,2.70
2023-05-10T00:12:09.229Z,2.40
2023-05-10T00:16:25.688Z,2.65
2023-05-10T00:20:42.043Z,2.85
2023-05-10T00:24:58.595Z,2.83
2023-05-10T00:29:14.922Z,2.50
2023-05-10T00:33:31.171Z,2.70
2023-05-10T00:37:47.658Z,2.87
2023-05-10T00:42:05.385Z,2.50
2023-05-10T00:46:21.787Z,2.53
2023-05-10T00:50:38.280Z,3.20
2023-05-10T00:54:54.826Z,3.12
2023-05-10T00:59:11.324Z,2.83
2023-05-10T01:03:27.854Z,3.05
2023-05-10T01:07:44.159Z,3.22
2023-05-10T01:12:01.035Z,3.62
2023-05-10T01:16:17.584Z,3.30
2023-05-10T01:20:41.377Z,3.25
2023-05-10T01:25:16.436Z,3.15
2023-05-10T01:30:15.658Z,3.00
2023-05-10T01:34:42.714Z,3.50
2023-05-10T01:39:21.694Z,3.10
2023-05-10T01:44:16.034Z,3.30
2023-05-10T01:48:32.730Z,3.00
2023-05-10T01:52:55.970Z,3.70
2023-05-10T01:57:15.375Z,3.70
2023-05-10T02:01:31.934Z,3.12
2023-05-10T02:05:49.720Z,3.15
2023-05-10T02:10:10.578Z,3.35
2023-05-10T02:14:28.232Z,3.03
2023-05-10T02:18:45.330Z,3.67
2023-05-10T02:23:02.939Z,3.83
2023-05-10T02:27:21.119Z,3.58
2023-05-10T02:31:40.113Z,3.67
2023-05-10T02:35:57.171Z,3.25
2023-05-10T02:40:14.275Z,3.58
2023-05-10T02:44:32.327Z,3.37
2023-05-10T02:48:48.671Z,3.15
2023-05-10T02:53:31.760Z,3.03
2023-05-10T02:57:55.936Z,3.42
2023-05-10T03:02:13.582Z,3.20
2023-05-10T03:06:29.938Z,3.12
2023-05-10T03:11:04.828Z,3.22
2023-05-10T03:15:29.837Z,3.60
2023-05-10T03:19:54.582Z,2.37
2023-05-10T03:24:13.564Z,3.12
2023-05-10T03:28:30.103Z,3.60
2023-05-10T03:32:46.669Z,3.60
2023-05-10T03:37:03.018Z,3.55
2023-05-10T03:41:19.330Z,3.28
2023-05-10T03:45:36.032Z,3.12
2023-05-10T03:49:52.330Z,3.17
2023-05-10T03:54:08.673Z,3.05
2023-05-10T03:58:24.973Z,3.08
2023-05-10T04:02:41.669Z,3.45
2023-05-10T04:06:58.130Z,3.67
2023-05-10T04:11:15.364Z,3.50
2023-05-10T04:15:31.630Z,3.50
2023-05-10T04:19:47.901Z,3.97
2023-05-10T04:24:04.450Z,3.20
2023-05-10T04:28:20.740Z,3.50
2023-05-10T04:32:37.465Z,3.47
2023-05-10T04:36:53.838Z,3.72
2023-05-10T04:41:11.515Z,3.28
2023-05-10T04:45:27.832Z,3.70
2023-05-10T04:49:44.179Z,3.35
2023-05-10T04:54:06.206Z,3.65
2023-05-10T04:58:23.203Z,3.77
2023-05-10T05:02:39.897Z,3.78
2023-05-10T05:06:56.453Z,3.62
2023-05-10T05:11:12.753Z,3.55
2023-05-10T05:15:29.218Z,3.60
2023-05-10T05:19:45.546Z,3.85
2023-05-10T05:24:02.047Z,3.45
2023-05-10T05:28:18.292Z,3.90
2023-05-10T05:32:35.688Z,3.83
2023-05-10T05:36:52.330Z,3.35
2023-05-10T05:41:08.599Z,3.60
2023-05-10T05:45:24.887Z,3.70
2023-05-10T05:49:41.340Z,3.17
2023-05-10T05:53:57.613Z,3.22
2023-05-10T05:58:13.873Z,3.42
2023-05-10T06:02:30.203Z,3.37
2023-05-10T06:06:46.920Z,3.25
2023-05-10T06:11:03.448Z,3.50
2023-05-10T06:15:19.798Z,3.58
2023-05-10T06:19:36.122Z,4.10
2023-05-10T06:23:52.475Z,3.80
2023-05-10T06:28:08.891Z,3.45
2023-05-10T06:32:25.181Z,3.80
2023-05-10T06:36:41.460Z,3.83
2023-05-10T06:40:58.388Z,3.55
2023-05-10T06:45:16.205Z,3.60
2023-05-10T06:49:32.725Z,3.62
2023-05-10T06:53:49.298Z,3.92
2023-05-10T06:58:05.957Z,3.97
2023-05-10T07:02:22.334Z,3.90
2023-05-10T07:06:38.637Z,3.40
2023-05-10T07:10:54.898Z,3.53
2023-05-10T07:15:11.466Z,3.53
2023-05-10T07:19:27.826Z,3.25
2023-05-10T07:23:45.248Z,3.95
2023-05-10T07:28:01.633Z,3.80
2023-05-10T07:32:17.953Z,3.33
2023-05-10T07:36:34.365Z,3.90
2023-05-10T07:40:50.574Z,3.72
2023-05-10T07:45:07.484Z,3.65
2023-05-10T07:49:25.586Z,4.40
2023-05-10T07:53:41.882Z,8.85
2023-05-10T07:57:58.143Z,5.95
2023-05-10T08:02:14.490Z,4.87
2023-05-10T08:06:31.410Z,5.22
2023-05-10T08:10:47.826Z,5.97
2023-05-10T08:15:04.594Z,4.72
2023-05-10T08:19:22.497Z,6.03
2023-05-10T08:23:38.882Z,6.95
2023-05-10T08:27:55.166Z,5.20
2023-05-10T08:32:11.737Z,4.05
2023-05-10T08:36:28.883Z,4.20
2023-05-10T08:40:46.042Z,3.92
2023-05-10T08:45:03.473Z,3.75
2023-05-10T08:49:21.258Z,3.60
2023-05-10T08:53:38.230Z,3.67
2023-05-10T08:57:54.737Z,3.30
2023-05-10T09:02:13.139Z,3.50
2023-05-10T09:06:29.984Z,3.20
2023-05-10T09:10:48.727Z,3.80
2023-05-10T09:15:06.269Z,3.37
2023-05-10T09:19:22.643Z,3.60
2023-05-10T09:23:38.881Z,3.62
2023-05-10T09:27:56.217Z,3.50
2023-05-10T09:32:13.918Z,3.30
2023-05-10T09:36:30.308Z,3.40
2023-05-10T09:40:57.691Z,3.17
2023-05-10T09:45:14.068Z,3.60
2023-05-10T09:49:30.996Z,3.28
2023-05-10T09:53:47.552Z,3.15
2023-05-10T09:58:04.068Z,3.00
2023-05-10T10:02:20.721Z,2.90
2023-05-10T10:06:41.148Z,3.17
2023-05-10T10:10:57.456Z,3.25
2023-05-10T10:15:16.573Z,2.80
2023-05-10T10:19:37.287Z,3.08
2023-05-10T10:23:54.456Z,3.50
2023-05-10T10:28:51.281Z,2.62
2023-05-10T10:33:48.099Z,2.67
2023-05-10T10:38:04.846Z,2.60
2023-05-10T10:42:51.058Z,2.90
2023-05-10T10:47:13.418Z,2.50
2023-05-10T10:51:32.465Z,2.50
2023-05-10T10:55:49.670Z,2.35
2023-05-10T11:00:25.847Z,2.30
2023-05-10T11:04:47.805Z,2.50
2023-05-10T11:09:11.424Z,2.30
2023-05-10T11:13:32.050Z,2.30
2023-05-10T11:17:53.302Z,2.53
2023-05-10T11:22:16.045Z,2.35
2023-05-10T11:26:38.891Z,2.28
2023-05-10T11:30:55.885Z,1.98
2023-05-10T11:35:13.164Z,2.25
2023-05-10T11:39:31.049Z,1.95
2023-05-10T11:43:53.207Z,2.15
2023-05-10T11:48:09.537Z,1.80
2023-05-10T11:52:26.160Z,2.15
2023-05-10T11:56:42.605Z,1.70
2023-05-10T12:01:00.229Z,1.83
2023-05-10T12:05:17.215Z,1.60
2023-05-10T12:09:43.167Z,1.80
2023-05-10T12:14:00.226Z,1.90
2023-05-10T12:18:23.876Z,1.60
2023-05-10T12:22:40.173Z,1.75
2023-05-10T12:31:30.131Z,1.70
2023-05-10T12:35:50.023Z,1.75
2023-05-10T12:40:09.302Z,1.95
2023-05-10T12:44:25.735Z,1.70
2023-05-10T12:48:43.109Z,1.75
2023-05-10T12:52:59.215Z,1.80
2023-05-10T12:57:16.049Z,1.80
2023-05-10T13:01:32.348Z,2.10
2023-05-10T13:05:48.607Z,1.87
2023-05-10T13:10:05.061Z,1.77
2023-05-10T13:14:24.388Z,1.87
2023-05-10T13:18:40.640Z,2.17
2023-05-10T13:22:56.815Z,1.85
2023-05-10T13:27:13.127Z,1.98
2023-05-10T13:31:29.534Z,1.80
2023-05-10T13:35:46.362Z,1.95
2023-05-10T13:40:03.054Z,1.80
2023-05-10T13:44:19.269Z,1.80
2023-05-10T13:48:36.864Z,1.65
2023-05-10T13:52:54.970Z,1.75
2023-05-10T13:57:13.018Z,1.62
2023-05-10T14:01:29.213Z,1.70
2023-05-10T14:05:46.406Z,1.62
2023-05-10T14:10:02.658Z,1.70
2023-05-10T14:14:18.873Z,1.40
2023-05-10T14:18:35.285Z,1.40
2023-05-10T14:22:51.599Z,1.70
2023-05-10T14:27:08.178Z,1.52
2023-05-10T14:31:25.908Z,1.75
2023-05-10T14:35:42.259Z,1.70
2023-05-10T14:39:58.672Z,1.70
2023-05-10T14:44:16.534Z,1.70
2023-05-10T14:48:32.732Z,2.00
2023-05-10T14:52:49.076Z,1.95
2023-05-10T14:57:05.276Z,1.73
2023-05-10T15:01:21.553Z,1.70
2023-05-10T15:05:38.872Z,1.90
2023-05-10T15:09:55.403Z,1.60
2023-05-10T15:14:11.547Z,1.42
2023-05-10T15:18:27.756Z,1.50
2023-05-10T15:22:43.945Z,1.58
2023-05-10T15:27:00.140Z,1.60
2023-05-10T15:31:16.471Z,1.60
2023-05-10T15:35:32.879Z,1.87
2023-05-10T15:39:49.025Z,1.70
2023-05-10T15:44:05.248Z,2.17
2023-05-10T15:48:21.453Z,2.28
2023-05-10T15:52:37.890Z,4.43
2023-05-10T15:56:55.262Z,2.30
2023-05-10T16:01:14.655Z,2.83
2023-05-10T16:05:33.856Z,2.50
2023-05-10T16:09:50.194Z,2.50
2023-05-10T16:14:07.357Z,3.58
2023-05-10T16:18:24.128Z,1.90
2023-05-10T16:22:40.790Z,1.85
2023-05-10T16:26:57.130Z,2.10
2023-05-10T16:31:14.134Z,2.10
2023-05-10T16:35:30.799Z,2.10
2023-05-10T16:39:47.136Z,1.85
2023-05-10T16:44:04.106Z,1.80
2023-05-10T16:48:20.426Z,2.10
2023-05-10T16:52:37.403Z,2.10
2023-05-10T16:56:53.691Z,2.10
2023-05-10T17:01:10.254Z,2.12
2023-05-10T17:05:27.338Z,2.17
2023-05-10T17:09:44.325Z,2.62
2023-05-10T17:14:01.637Z,2.95
2023-05-10T17:18:18.375Z,2.00
2023-05-10T17:22:34.729Z,1.85
2023-05-10T17:26:51.042Z,2.15
2023-05-10T17:31:07.383Z,2.10
2023-05-10T17:35:24.247Z,2.00
2023-05-10T17:39:40.536Z,2.10
2023-05-10T17:43:56.775Z,1.73
2023-05-10T17:48:13.676Z,2.08
2023-05-10T17:52:32.106Z,1.98
2023-05-10T17:56:50.533Z,1.80
2023-05-10T18:01:06.935Z,2.20
2023-05-10T18:05:23.748Z,2.08
2023-05-10T18:09:40.386Z,2.40
2023-05-10T18:13:56.713Z,2.00
2023-05-10T18:18:12.981Z,1.90
2023-05-10T18:22:29.283Z,2.10
2023-05-10T18:26:45.604Z,2.00
2023-05-10T18:31:02.060Z,2.10
2023-05-10T18:35:18.601Z,2.08
2023-05-10T18:39:36.800Z,2.17
2023-05-10T18:43:53.712Z,2.10
2023-05-10T18:48:10.265Z,1.95
2023-05-10T18:52:26.685Z,2.20
2023-05-10T18:56:45.426Z,2.12
2023-05-10T19:01:01.731Z,1.92
2023-05-10T19:05:18.545Z,2.22
2023-05-10T19:09:35.134Z,2.30
2023-05-10T19:13:51.646Z,2.08
2023-05-10T19:18:09.783Z,2.20
2023-05-10T19:22:44.934Z,2.30
2023-05-10T19:27:03.974Z,2.40
2023-05-10T19:31:21.265Z,2.58
2023-05-10T19:35:37.706Z,2.28
2023-05-10T19:39:54.474Z,2.22
2023-05-10T19:44:10.831Z,2.17
2023-05-10T19:48:27.609Z,2.20
2023-05-10T19:52:45.093Z,2.35
2023-05-10T19:57:01.357Z,2.17
2023-05-10T20:01:17.658Z,2.10
2023-05-10T20:05:34.030Z,2.42
2023-05-10T20:09:50.372Z,1.70
2023-05-10T20:14:06.789Z,2.08
2023-05-10T20:18:23.262Z,2.00
2023-05-10T20:22:40.128Z,2.00
2023-05-10T20:26:57.190Z,2.05
2023-05-10T20:31:13.508Z,2.10
2023-05-10T20:35:29.801Z,2.35
2023-05-10T20:39:47.035Z,2.53
2023-05-10T20:44:06.178Z,2.40
2023-05-10T20:48:22.525Z,2.35
2023-05-10T20:52:38.937Z,1.90
2023-05-10T20:56:55.195Z,2.37
2023-05-10T21:01:11.610Z,2.37
2023-05-10T21:05:28.067Z,2.00
2023-05-10T21:09:44.620Z,2.28
2023-05-10T21:14:01.030Z,2.60
2023-05-10T21:18:17.285Z,1.80
2023-05-10T21:22:33.630Z,2.00
2023-05-10T21:26:49.922Z,1.95
2023-05-10T21:31:06.789Z,2.25
2023-05-10T21:35:23.088Z,2.20
2023-05-10T21:39:39.342Z,2.15
2023-05-10T21:43:56.562Z,2.33
2023-05-10T21:48:13.591Z,1.98
2023-05-10T21:52:29.880Z,2.30
2023-05-10T21:56:46.222Z,2.10
2023-05-10T22:01:02.952Z,2.00
2023-05-10T22:05:21.612Z,2.20
2023-05-10T22:09:37.901Z,2.25
2023-05-10T22:13:54.374Z,2.50
2023-05-10T22:18:10.888Z,2.55
2023-05-10T22:22:27.250Z,2.20
2023-05-10T22:26:43.534Z,2.50
2023-05-10T22:30:59.944Z,2.03
2023-05-10T22:35:16.473Z,2.25
2023-05-10T22:39:33.540Z,2.45
2023-05-10T22:43:50.166Z,2.30
2023-05-10T22:48:08.839Z,2.15
2023-05-10T22:52:25.179Z,2.28
2023-05-10T22:56:41.660Z,2.17
2023-05-10T23:00:58.381Z,2.00
2023-05-10T23:05:14.772Z,2.00
2023-05-10T23:09:31.084Z,2.15
2023-05-10T23:13:47.551Z,2.08
2023-05-10T23:18:06.139Z,2.80
2023-05-10T23:22:22.450Z,2.50
2023-05-10T23:26:38.837Z,2.40
2023-05-10T23:30:58.818Z,2.20
2023-05-10T23:35:15.113Z,2.33
2023-05-10T23:39:31.347Z,2.35
2023-05-10T23:43:47.657Z,2.50
2023-05-10T23:48:04.052Z,2.33
2023-05-10T23:52:25.072Z,2.67
2023-05-10T23:56:41.542Z,2.30
